Terminal Aerodrome Forecast
Issued by NWS Green Bay, WI

Home | Current Version | Previous Version | Text Only | Print | Product List | Glossary Off
Versions: 1 2 3 4 5 6 7 8 9 10 11 12 13 14 15 16 17 18 19 20 21 22 23 24 25 26 27 28 29 30 31 32 33 34

000
FTUS43 KGRB 210900 AAA
TAFGRB
TAF AMD
KGRB 210927Z 2109/2206 VRB03KT 3SM BR SCT060 OVC100
      TEMPO 2109/2113 1SM -SHRA BR BKN050
     FM211500 16004KT 4SM BR BKN020 BKN040
     FM211700 VRB03KT 6SM -SHRA BR BKN020 BKN040
      TEMPO 2117/2121 1SM -TSRA BR BKN020CB
     FM212300 32009KT P6SM SCT020 BKN040
     FM220200 33011G20KT P6SM SCT040 SCT090=

USA.gov is the U.S. government's official web portal to all federal, state and local government web resources and services.